Mid Ohio Valley Regional Airport
KPKB : now visible

Airfield :











YOU CAN JOIN US ON...

 
LOGIN :

Register | Disclaimer

   EN    FR    IT 

 









Legend :    VFR   Marginal VFR   IFR   Intensive IFR   Very Intensive IFR
Visi :
Ceiling :
>= 8 km
>= 3000ft
5 to 8 km
1000 to 3000 ft
1500m to 5 km
500 to 1000 ft
800 to 1500m
200 to 500 ft
< 800m
< 200 ft
Symbols :   Thunderstorms  Fog  Heavy snow  Heavy precipitations  Wind > 20 kt






- Airport Elevation : 858 ft
- IATA code : PKB


KPKB - Mid Ohio Valley Regional

CURRENT METAR :
  • 291653Z 22008G17KT 10SM FEW022 24/17 A2996 RMK AO2 LTG DSNT E SLP140 T02390172

EXPIRED METARs :
  • 291553Z 23011G22KT 10SM CLR 24/16 A2998 RMK AO2 SLP147 T02390161
  • 291453Z 20007KT 170V240 10SM FEW022 24/19 A2998 RMK AO2 SLP146 T02390189 58001

TAF KPKB
Valid from the 29 at 18:00 until the 30 at 18:00 UTC


291728Z 2918/3018 22010KT P6SM SCT100
FM292000 24006G16KT 4SM -TSRA SCT060CB
FM292300 28004KT P6SM -SHRA OVC060
FM300100 VRB03KT P6SM BKN035
FM300300 00000KT 6SM BR BKN045
FM300600 00000KT 5SM BR BKN060
FM300900 00000KT 6SM BR SCT035
KZID FIR / North America



MET'MAP, your aeronautical weather chart ! - Copyright ORBIFLY December 2007 - Disclaimer

ORBIFLY MET'MAP TEAM :

Programming & Development : Alexandra Zaïnal
Concept & original design : Baudouin d'Aumeries
Assistance for programming : Marc-Olivier Méhu
Technical & hardware support : Manuel Goepfert

Contact : metmap@orbifly.com




SOURCES & CREDITS :

   NOAA       Earth
Advisory